Flight Track Log - Related Links

Times and Time Zones

All times are in EST time to prevent confusion due to time zone crossing. See the N400PU flight status page for this flight to view local times or setup timezone preferences in your user account.

Time Position Orientation Groundspeed Altitude Reporting Facility
EST Latitude Longitude Course Direction KTS MPH feet Rate Location/Type
Sun 10:14:20 AM 40.4119 -86.9667 172° South 155 178 1,500  Level Chicago Center
Sun 10:15:55 AM 40.3525 -86.9556 172° South 256 295 4,900 2,140 Climbing Indianapolis Center
Sun 10:16:57 AM 40.3258 -86.8628 111° Southeast 267 307 7,100 1,756 Climbing Indianapolis Center
Sun 10:17:58 AM 40.3006 -86.7642 109° East 281 323 8,500 1,415 Climbing Indianapolis Center
Sun 10:19:00 AM 40.2706 -86.6608 111° Southeast 295 339 10,000 1,512 Climbing Indianapolis Center
Sun 10:20:01 AM 40.2381 -86.5408 109° East 334 384 11,600 1,463 Climbing Indianapolis Center
Sun 10:21:03 AM 40.2014 -86.4083 110° East 378 435 13,000 683 Climbing Indianapolis Center
Sun 10:22:04 AM 40.1631 -86.2700 110° East 397 457 13,000  Level Indianapolis Center
Sun 10:23:06 AM 40.1236 -86.1272 110° East 407 468 13,000  Level Indianapolis Center
Sun 10:23:48 AM 40.1000 -86.0167 106° East 411 473 13,000  Level Indianapolis TRACON
Sun 10:24:07 AM 40.0833 -85.9850 125° Southeast 411 473 13,000  Level Indianapolis Center
Sun 10:25:09 AM 40.0444 -85.8444 110° East 408 470 13,000  Level Indianapolis Center
Sun 10:26:10 AM 40.0044 -85.7031 110° East 410 472 13,000  Level Indianapolis Center
Sun 10:27:11 AM 39.9647 -85.5622 110° East 410 472 13,000  Level Indianapolis Center
Sun 10:28:13 AM 39.9244 -85.4219 110° East 409 471 13,000  Level Indianapolis Center
Sun 10:28:45 AM 39.8994 -85.3333 110° East 410 472 13,000  Level Indianapolis Center
Sun 10:29:14 AM 39.8842 -85.2814 111° Southeast 410 472 13,000 -66 Level Indianapolis Center
Sun 10:30:16 AM 39.8436 -85.1417 111° Southeast 409 471 12,900 -976 Descending Indianapolis Center
Sun 10:31:17 AM 39.8006 -84.9861 110° East 381 438 11,000 -1,707 Descending Indianapolis Center
Sun 10:32:19 AM 39.7972 -84.8742 92° East 334 384 9,400 -1,610 Descending Indianapolis Center
Sun 10:33:20 AM 39.7781 -84.7592 102° East 323 372 7,700 -1,820 Descending Indianapolis Center
Sun 10:34:21 AM 39.7592 -84.6486 102° East 314 361 5,700 -1,969 Descending Indianapolis Center
Sun 10:35:31 AM 39.7361 -84.5186 103° East 302 348 3,400 -1,317 Descending Indianapolis Center
Sun 10:36:24 AM 39.7228 -84.4350 102° East 303 349 3,000 -209 Descending Indianapolis Center
Sun 10:37:26 AM 39.7047 -84.3336 103° East 296 341 3,000  Level Indianapolis Center
Sun 10:38:27 AM 39.6775 -84.2564 115° Southeast 257 296 3,000 -49 Level Indianapolis Center
Sun 10:39:29 AM 39.6331 -84.2433 167° South 174 200 2,900 -49 Descending Indianapolis Center
Sun 10:40:30 AM 39.6128 -84.2711 227° Southwest 125 144 2,900 -246 Level Indianapolis Center
Sun 10:41:31 AM 39.5942 -84.2992 229° Southwest 110 127 2,400 -476 Descending Indianapolis Center
Sun 10:42:36 AM 39.5756 -84.3261 228° Southwest 96 110 1,900 -476 Descending Indianapolis Center
Sun 10:43:37 AM 39.5586 -84.3536 231° Southwest 94 108 1,400 -492 Descending Indianapolis Center

Login

Don't have an account? Register now (free) for customized features, flight alerts, and more!